Time;durP1;ratioP1;P1;durP2;ratioP2;P2;SDS_P1;SDS_P2;PMS_P1;PMS_P2;Temp;Humidity;BMP_temperature;BMP_pressure;BME280_temperature;BME280_humidity;BME280_pressure;Samples;Min_cycle;Max_cycle;Signal;HPM_P1;HPM_P2
2022/04/11 00:00:21;;;;;;;5.30;2.83;;;;;;;5.76;78.77;99948.64;1776980;77;20936;-75
2022/04/11 00:02:49;;;;;;;4.65;3.12;;;;;;;5.74;78.76;99942.27;1780107;78;20995;-74
2022/04/11 00:05:16;;;;;;;4.65;2.92;;;;;;;5.73;78.80;99941.99;1778507;78;21482;-73
2022/04/11 00:07:43;;;;;;;5.65;2.90;;;;;;;5.73;78.81;99942.52;1782102;78;21223;-72
2022/04/11 00:10:10;;;;;;;4.40;2.55;;;;;;;5.72;78.79;99942.22;1778997;78;21188;-74
2022/04/11 00:12:41;;;;;;;6.20;2.98;;;;;;;5.72;78.83;99943.02;1778165;78;21030;-74
2022/04/11 00:15:09;;;;;;;6.22;3.42;;;;;;;5.72;78.83;99944.34;1783795;78;21113;-73
2022/04/11 00:17:37;;;;;;;5.08;2.70;;;;;;;5.71;78.86;99940.09;1775522;78;21529;-73
2022/04/11 00:20:06;;;;;;;5.75;2.95;;;;;;;5.72;78.88;99941.69;1777703;78;21062;-73
2022/04/11 00:22:36;;;;;;;5.85;3.20;;;;;;;5.70;78.88;99935.84;1778180;78;21022;-72
2022/04/11 00:25:05;;;;;;;5.70;2.80;;;;;;;5.69;78.95;99936.87;1776487;78;21066;-73
2022/04/11 00:27:34;;;;;;;4.72;2.90;;;;;;;5.71;78.97;99941.95;1761534;78;21114;-73
2022/04/11 00:30:01;;;;;;;7.28;2.85;;;;;;;5.69;78.99;99951.97;1780786;78;21007;-73
2022/04/11 00:32:31;;;;;;;5.42;3.00;;;;;;;5.70;78.98;99958.89;1775097;78;21034;-73
2022/04/11 00:34:59;;;;;;;7.00;3.20;;;;;;;5.70;78.96;99961.02;1781373;78;21014;-72
2022/04/11 00:37:26;;;;;;;6.65;3.30;;;;;;;5.69;78.94;99951.44;1776625;78;21093;-73
2022/04/11 00:39:55;;;;;;;4.97;2.75;;;;;;;5.69;78.94;99952.77;1779180;78;21034;-73
2022/04/11 00:42:26;;;;;;;4.62;2.75;;;;;;;5.68;78.93;99937.92;1780606;78;21126;-73
2022/04/11 00:44:54;;;;;;;4.70;2.72;;;;;;;5.70;78.94;99961.55;1777607;78;21180;-73
2022/04/11 00:47:22;;;;;;;4.45;2.65;;;;;;;5.67;79.03;99958.84;1780860;78;21129;-72
2022/04/11 00:49:49;;;;;;;4.15;2.83;;;;;;;5.68;79.08;99964.42;1793543;78;21016;-72
2022/04/11 00:52:18;;;;;;;5.03;2.58;;;;;;;5.69;79.15;99962.04;1749819;78;21113;-73
2022/04/11 00:54:45;;;;;;;5.03;2.80;;;;;;;5.69;79.13;99966.02;1780151;78;20991;-72
2022/04/11 00:57:13;;;;;;;5.10;2.80;;;;;;;5.69;79.14;99962.04;1777683;78;21731;-72
2022/04/11 00:59:42;;;;;;;3.98;2.47;;;;;;;5.69;79.18;99955.41;1782761;78;20943;-71
2022/04/11 01:02:10;;;;;;;5.80;3.15;;;;;;;5.71;79.25;99961.30;1780986;78;21094;-71
2022/04/11 01:04:41;;;;;;;4.80;2.90;;;;;;;5.70;79.28;99954.92;1790479;78;20953;-74
2022/04/11 01:07:08;;;;;;;5.12;3.05;;;;;;;5.70;79.33;99959.69;1804730;78;21018;-71
2022/04/11 01:09:37;;;;;;;4.40;2.80;;;;;;;5.70;79.30;99959.69;1781813;78;21113;-70
2022/04/11 01:12:05;;;;;;;4.72;3.00;;;;;;;5.69;79.35;99959.39;1789476;79;21038;-72
2022/04/11 01:14:34;;;;;;;4.87;2.80;;;;;;;5.71;79.37;99957.31;1771936;78;20951;-72
2022/04/11 01:17:03;;;;;;;4.95;3.15;;;;;;;5.70;79.39;99956.25;1810969;78;20988;-73
2022/04/11 01:19:31;;;;;;;5.53;3.12;;;;;;;5.70;79.39;99956.25;1831315;78;21036;-73
2022/04/11 01:21:59;;;;;;;4.45;2.87;;;;;;;5.71;79.45;99952.55;1782059;78;22164;-73
2022/04/11 01:24:28;;;;;;;5.65;2.75;;;;;;;5.72;79.47;99958.91;1778558;78;21070;-73
2022/04/11 01:26:56;;;;;;;4.87;3.10;;;;;;;5.70;79.50;99958.38;1775041;78;21491;-72
2022/04/11 01:29:24;;;;;;;5.42;3.00;;;;;;;5.70;79.49;99956.25;1778924;78;21066;-71
2022/04/11 01:31:51;;;;;;;4.28;2.80;;;;;;;5.70;79.51;99949.09;1782446;78;20987;-72
2022/04/11 01:34:19;;;;;;;5.05;2.60;;;;;;;5.71;79.55;99947.24;1780725;78;20983;-72
2022/04/11 01:36:47;;;;;;;4.50;2.92;;;;;;;5.72;79.53;99948.31;1780376;78;20900;-72
2022/04/11 01:39:14;;;;;;;5.85;2.90;;;;;;;5.74;79.52;99948.09;1782132;78;21050;-72
2022/04/11 01:41:42;;;;;;;4.62;2.70;;;;;;;5.74;79.49;99962.14;1756812;79;21051;-72
2022/04/11 01:44:09;;;;;;;4.83;2.92;;;;;;;5.75;79.48;99958.96;1820425;78;20998;-71
2022/04/11 01:46:36;;;;;;;6.03;2.70;;;;;;;5.78;79.53;99955.31;1813168;77;21448;-69
2022/04/11 01:49:08;;;;;;;5.42;2.70;;;;;;;5.80;79.51;99951.91;1776337;78;21073;-70
2022/04/11 01:51:35;;;;;;;4.17;2.50;;;;;;;5.83;79.50;99951.44;1804025;77;20986;-71
2022/04/11 01:54:02;;;;;;;4.03;2.47;;;;;;;5.85;79.46;99951.17;1773306;78;21088;-72
2022/04/11 01:56:31;;;;;;;4.40;2.80;;;;;;;5.84;79.38;99946.41;1804668;77;20903;-71
2022/04/11 01:58:58;;;;;;;4.15;2.50;;;;;;;5.85;79.41;99946.68;1769714;78;21473;-71
2022/04/11 02:01:25;;;;;;;6.42;3.08;;;;;;;5.86;79.35;99954.13;1802730;77;21025;-70
2022/04/11 02:03:53;;;;;;;5.72;2.52;;;;;;;5.88;79.33;99952.02;1772397;78;21064;-71
2022/04/11 02:06:20;;;;;;;4.08;2.30;;;;;;;5.90;79.34;99958.42;1806189;78;20982;-72
2022/04/11 02:08:48;;;;;;;4.45;2.47;;;;;;;5.90;79.30;99955.25;1774325;78;21027;-70
2022/04/11 02:11:18;;;;;;;5.20;2.75;;;;;;;5.92;79.33;99961.09;1765808;78;21050;-73
2022/04/11 02:13:46;;;;;;;4.67;2.40;;;;;;;5.89;79.30;99954.98;1766127;78;21034;-73
2022/04/11 02:16:15;;;;;;;3.58;2.30;;;;;;;5.89;79.30;99958.95;1773075;78;20999;-71
2022/04/11 02:18:42;;;;;;;3.52;2.55;;;;;;;5.89;79.26;99960.28;1771138;78;21062;-72
2022/04/11 02:21:11;;;;;;;4.22;2.40;;;;;;;5.90;79.27;99955.78;1773652;78;22048;-70
2022/04/11 02:23:39;;;;;;;5.35;2.72;;;;;;;5.90;79.24;99954.45;1767645;78;21154;-71
2022/04/11 02:26:07;;;;;;;4.62;2.75;;;;;;;5.91;79.25;99954.73;1772473;78;20983;-72
2022/04/11 02:28:34;;;;;;;4.30;2.58;;;;;;;5.90;79.23;99953.13;1769883;78;21038;-73
2022/04/11 02:31:02;;;;;;;5.25;2.75;;;;;;;5.91;79.24;99954.20;1768789;78;21083;-72
2022/04/11 02:33:29;;;;;;;5.22;2.67;;;;;;;5.91;79.18;99953.40;1782917;78;21629;-71
2022/04/11 02:35:56;;;;;;;5.17;2.77;;;;;;;5.91;79.15;99952.07;1770160;78;21149;-71
2022/04/11 02:38:24;;;;;;;4.85;2.83;;;;;;;5.89;79.13;99945.70;1766937;78;21545;-73
2022/04/11 02:40:53;;;;;;;4.50;2.90;;;;;;;5.91;79.14;99951.55;1753494;78;21000;-72
2022/04/11 02:43:23;;;;;;;3.95;2.60;;;;;;;5.92;79.11;99943.87;1773272;78;21526;-72
2022/04/11 02:45:51;;;;;;;5.08;3.00;;;;;;;5.93;79.11;99941.55;1776772;78;21039;-70
2022/04/11 02:48:21;;;;;;;4.25;2.87;;;;;;;5.95;79.10;99946.07;1763375;78;22162;-70
2022/04/11 02:50:51;;;;;;;4.05;2.50;;;;;;;5.95;79.05;99943.95;1764327;78;20987;-70
2022/04/11 02:53:23;;;;;;;4.17;2.47;;;;;;;5.95;79.02;99952.70;1778247;80;21674;-70
2022/04/11 02:55:50;;;;;;;4.97;2.90;;;;;;;5.95;79.00;99959.84;1787717;78;21079;-69
2022/04/11 02:58:19;;;;;;;4.22;2.47;;;;;;;5.94;78.96;99963.55;1766738;78;21048;-69
2022/04/11 03:00:47;;;;;;;7.67;3.15;;;;;;;5.96;78.94;99956.17;1768886;78;21233;-70
2022/04/11 03:03:16;;;;;;;4.75;2.60;;;;;;;5.94;78.88;99953.75;1766093;78;21065;-70
2022/04/11 03:05:44;;;;;;;4.35;2.42;;;;;;;5.93;78.84;99952.16;1765870;78;21086;-71
2022/04/11 03:08:11;;;;;;;4.37;2.55;;;;;;;5.91;78.85;99956.05;1766034;78;21031;-70
2022/04/11 03:10:41;;;;;;;4.17;2.55;;;;;;;5.89;78.85;99964.25;1766969;78;20991;-70
2022/04/11 03:13:09;;;;;;;5.40;3.25;;;;;;;5.88;78.81;99959.98;1765885;78;21282;-70
2022/04/11 03:15:37;;;;;;;4.78;3.00;;;;;;;5.86;78.75;99961.55;1766395;78;21031;-71
2022/04/11 03:18:07;;;;;;;4.22;2.70;;;;;;;5.84;78.73;99961.51;1765946;78;21019;-70
2022/04/11 03:20:37;;;;;;;;;;;;;;;5.82;78.71;99964.91;1771581;78;21004;-71
2022/04/11 03:23:05;;;;;;;4.60;2.83;;;;;;;5.82;78.67;99972.86;1775910;78;20196;-70
2022/04/11 03:25:33;;;;;;;4.37;2.85;;;;;;;5.79;78.67;99973.34;1771221;78;21868;-70
2022/04/11 03:28:00;;;;;;;5.47;2.70;;;;;;;5.78;78.66;99978.36;1766114;78;21035;-69
2022/04/11 03:30:29;;;;;;;3.58;2.40;;;;;;;5.78;78.66;99984.46;1774119;78;21114;-70
2022/04/11 03:32:57;;;;;;;5.03;2.60;;;;;;;5.79;78.66;99984.77;1764959;78;21053;-71
2022/04/11 03:35:24;;;;;;;5.12;2.77;;;;;;;5.75;78.67;99988.91;1769053;78;21074;-71
2022/04/11 03:37:53;;;;;;;4.10;2.55;;;;;;;5.76;78.68;99994.52;1770370;78;20964;-71
2022/04/11 03:40:22;;;;;;;5.17;2.80;;;;;;;5.75;78.70;99991.56;1769986;78;21075;-70
2022/04/11 03:42:52;;;;;;;3.95;2.70;;;;;;;5.84;78.52;99988.81;1749099;78;21062;-69
2022/04/11 03:45:20;;;;;;;3.62;2.22;;;;;;;5.86;78.48;99992.56;1767072;78;21531;-70
2022/04/11 03:47:49;;;;;;;4.45;2.45;;;;;;;5.86;78.46;99992.03;1764180;80;20992;-70
2022/04/11 03:50:22;;;;;;;4.12;2.70;;;;;;;5.87;78.42;99994.16;1788510;80;21290;-70
2022/04/11 03:52:49;;;;;;;5.25;2.75;;;;;;;5.87;78.45;99990.98;1788562;80;21048;-69
2022/04/11 03:55:18;;;;;;;4.28;2.72;;;;;;;5.86;78.43;99998.66;1785088;78;21091;-69
2022/04/11 03:57:47;;;;;;;4.75;3.25;;;;;;;5.86;78.41;99996.02;1767252;78;21010;-69
2022/04/11 04:00:16;;;;;;;7.75;4.75;;;;;;;5.87;78.40;99997.61;1771389;78;21173;-70
2022/04/11 04:03:10;;;;;;;7.70;5.67;;;;;;;5.90;78.41;99997.66;1766155;78;21209;-69
2022/04/11 04:05:44;;;;;;;8.30;6.78;;;;;;;5.94;78.39;99999.34;1763533;78;20987;-71
2022/04/11 04:08:13;;;;;;;9.38;7.62;;;;;;;5.96;78.32;99996.73;1774410;78;21046;-70
2022/04/11 04:10:45;;;;;;;9.35;7.37;;;;;;;6.00;78.26;99993.08;1766697;78;21047;-70
2022/04/11 04:13:16;;;;;;;10.13;6.87;;;;;;;6.02;78.23;99991.80;1748643;80;20915;-70
2022/04/11 04:15:46;;;;;;;6.65;5.37;;;;;;;6.06;78.13;100001.41;1772432;78;21222;-70
2022/04/11 04:18:20;;;;;;;7.30;4.40;;;;;;;6.10;78.06;100002.52;1769621;78;21042;-70
2022/04/11 04:20:48;;;;;;;5.75;4.53;;;;;;;6.14;77.97;100004.97;1766634;78;20932;-71
2022/04/11 04:23:22;;;;;;;6.45;4.70;;;;;;;6.20;77.86;100015.14;1735764;78;21039;-71
2022/04/11 04:25:51;;;;;;;9.20;6.28;;;;;;;6.22;77.74;100009.88;1704168;78;21499;-70
2022/04/11 04:28:22;;;;;;;9.13;6.60;;;;;;;6.26;77.65;100009.67;1769815;78;21110;-69
2022/04/11 04:30:50;;;;;;;9.33;6.80;;;;;;;6.28;77.58;100011.55;1767155;78;21039;-68
2022/04/11 04:33:23;;;;;;;11.18;8.03;;;;;;;6.33;77.49;100013.48;1766760;78;21530;-70
2022/04/11 04:35:54;;;;;;;9.50;7.55;;;;;;;6.40;77.52;100017.30;1751046;78;21042;-69
2022/04/11 04:38:31;;;;;;;11.55;8.10;;;;;;;6.52;77.57;100021.48;1751965;78;21510;-70
2022/04/11 04:41:01;;;;;;;9.35;6.20;;;;;;;6.64;77.51;100026.67;1768500;78;21790;-71
2022/04/11 04:43:34;;;;;;;7.22;5.33;;;;;;;6.78;77.16;100019.98;1771996;78;21046;-71
2022/04/11 04:46:11;;;;;;;6.62;4.37;;;;;;;6.91;76.91;100025.47;1766673;78;21027;-71
2022/04/11 04:48:44;;;;;;;5.85;3.85;;;;;;;7.00;76.42;100034.59;1764254;78;21188;-71
2022/04/11 04:51:20;;;;;;;4.45;3.10;;;;;;;7.10;76.12;100033.13;1751233;78;21010;-69
2022/04/11 04:53:55;;;;;;;5.25;3.20;;;;;;;7.15;75.62;100026.56;1789343;79;21205;-70
2022/04/11 04:56:26;;;;;;;5.62;2.85;;;;;;;7.22;75.18;100027.97;1738518;81;21059;-71
2022/04/11 04:58:59;;;;;;;4.28;2.75;;;;;;;7.29;74.86;100039.73;1754654;80;21085;-70
2022/04/11 05:01:35;;;;;;;4.60;2.80;;;;;;;7.24;74.40;100027.21;1765312;78;21779;-72
2022/04/11 05:04:10;;;;;;;4.67;2.70;;;;;;;7.21;74.26;100022.39;1766258;80;21426;-70
2022/04/11 05:06:43;;;;;;;5.15;2.92;;;;;;;7.22;73.81;100020.53;1736642;81;21222;-70
2022/04/11 05:09:25;;;;;;;5.35;2.77;;;;;;;7.20;73.39;100019.44;1766818;78;20980;-70
2022/04/11 05:12:16;;;;;;;5.03;2.60;;;;;;;7.21;73.21;100013.63;1747436;78;21054;-70
2022/04/11 05:14:52;;;;;;;5.47;2.60;;;;;;;7.23;72.88;100021.60;1770540;78;21031;-70
2022/04/11 05:17:24;;;;;;;5.30;2.92;;;;;;;7.33;72.80;100022.77;1747108;80;21046;-70
2022/04/11 05:19:56;;;;;;;5.95;2.75;;;;;;;7.47;72.54;100025.34;1753386;78;21332;-72
2022/04/11 05:22:30;;;;;;;5.55;3.58;;;;;;;7.58;72.27;100020.41;1750514;78;21086;-71
2022/04/11 05:25:06;;;;;;;4.90;2.80;;;;;;;7.63;71.62;100025.76;1727208;78;20995;-71
2022/04/11 05:27:40;;;;;;;3.98;2.60;;;;;;;7.65;71.16;100026.84;1775976;78;21142;-70
2022/04/11 05:30:23;;;;;;;4.35;2.37;;;;;;;7.69;70.34;100030.61;1752162;79;21062;-71
2022/04/11 05:32:57;;;;;;;4.20;2.60;;;;;;;7.80;70.18;100019.03;1763380;78;21196;-70
2022/04/11 05:35:34;;;;;;;5.95;3.00;;;;;;;7.81;70.22;100019.84;1725305;80;21069;-71
2022/04/11 05:38:10;;;;;;;4.10;2.40;;;;;;;7.88;70.20;100019.09;1762905;78;21099;-71
2022/04/11 05:41:02;;;;;;;5.15;2.65;;;;;;;7.97;70.03;100021.05;1783299;78;21023;-70
2022/04/11 05:43:36;;;;;;;6.40;2.90;;;;;;;8.05;69.57;100030.41;1759916;78;21106;-69
2022/04/11 05:46:07;;;;;;;5.83;2.80;;;;;;;8.05;68.68;100025.09;1770957;80;21522;-70
2022/04/11 05:48:45;;;;;;;5.05;3.05;;;;;;;8.06;68.38;100022.73;1740567;80;21022;-69
2022/04/11 05:51:21;;;;;;;7.22;3.70;;;;;;;8.12;67.99;100038.98;1730506;81;20964;-70
2022/04/11 05:54:03;;;;;;;6.97;3.40;;;;;;;8.19;67.76;100031.62;1748787;80;21030;-69
2022/04/11 05:56:41;;;;;;;6.25;3.77;;;;;;;8.33;67.51;100034.64;1761700;80;21152;-68
2022/04/11 05:59:24;;;;;;;5.95;3.67;;;;;;;8.50;66.85;100037.19;1788414;80;21520;-70
2022/04/11 06:02:05;;;;;;;7.03;3.72;;;;;;;8.64;66.71;100029.02;1770652;79;21040;-70
2022/04/11 06:04:34;;;;;;;7.50;4.33;;;;;;;8.81;66.60;100034.72;1778676;79;21007;-70
2022/04/11 06:07:05;;;;;;;7.08;4.55;;;;;;;8.96;66.81;100034.01;1788787;78;21003;-70
2022/04/11 06:09:34;;;;;;;7.42;4.58;;;;;;;9.04;66.30;100038.83;1789925;79;21541;-70
2022/04/11 06:12:03;;;;;;;7.03;4.83;;;;;;;9.09;66.10;100032.20;1783971;78;20968;-70
2022/04/11 06:14:33;;;;;;;7.00;4.33;;;;;;;9.15;66.04;100035.17;1766802;78;21642;-68
2022/04/11 06:17:00;;;;;;;7.45;4.42;;;;;;;9.21;65.95;100030.11;1766800;78;21652;-69
2022/04/11 06:19:28;;;;;;;8.50;4.08;;;;;;;9.26;65.52;100042.67;1767231;78;21148;-69
2022/04/11 06:21:55;;;;;;;7.67;4.20;;;;;;;9.23;65.02;100045.85;1798799;77;21090;-69
2022/04/11 06:24:21;;;;;;;6.70;4.55;;;;;;;9.20;64.86;100051.70;1803949;77;21544;-70
2022/04/11 06:26:48;;;;;;;6.70;4.20;;;;;;;9.16;64.50;100055.41;1765576;78;21086;-70
2022/04/11 06:29:16;;;;;;;7.42;5.00;;;;;;;9.10;64.35;100053.25;1765440;78;21105;-70
2022/04/11 06:31:44;;;;;;;7.75;5.00;;;;;;;9.07;64.31;100048.44;1767449;78;21023;-70
2022/04/11 06:34:13;;;;;;;8.25;4.45;;;;;;;9.07;64.25;100045.77;1765799;78;21042;-70
2022/04/11 06:36:41;;;;;;;6.87;4.30;;;;;;;9.06;63.89;100042.84;1766831;78;21093;-69
2022/04/11 06:39:08;;;;;;;5.80;3.60;;;;;;;9.11;63.85;100053.55;1766454;78;21047;-70
2022/04/11 06:41:37;;;;;;;6.78;3.55;;;;;;;9.18;63.88;100037.31;1769140;78;20984;-70
2022/04/11 06:44:05;;;;;;;7.70;4.00;;;;;;;9.27;63.90;100048.26;1776241;79;21152;-69
2022/04/11 06:46:42;;;;;;;5.62;3.52;;;;;;;9.34;63.36;100038.16;1784601;78;21452;-69
2022/04/11 06:49:10;;;;;;;6.00;3.27;;;;;;;9.41;62.89;100045.41;1775012;78;21394;-68
2022/04/11 06:51:37;;;;;;;5.53;3.25;;;;;;;9.45;62.67;100046.48;1772075;78;21035;-69
2022/04/11 06:54:05;;;;;;;6.05;4.22;;;;;;;9.45;62.19;100034.48;1768051;78;21027;-69
2022/04/11 06:56:32;;;;;;;6.35;4.00;;;;;;;9.43;61.60;100047.25;1769725;78;21038;-68
2022/04/11 06:58:59;;;;;;;6.15;4.20;;;;;;;9.42;61.38;100052.33;1769328;78;21039;-69
2022/04/11 07:01:26;;;;;;;6.45;4.25;;;;;;;9.43;61.54;100053.13;1768340;78;21166;-70
2022/04/11 07:03:54;;;;;;;6.58;3.55;;;;;;;9.52;61.49;100040.89;1769663;78;20943;-70
2022/04/11 07:06:20;;;;;;;5.10;3.20;;;;;;;9.62;61.15;100054.25;1776153;78;21113;-69
2022/04/11 07:08:48;;;;;;;6.45;3.85;;;;;;;9.72;60.85;100046.81;1769446;78;20979;-69
2022/04/11 07:11:16;;;;;;;6.53;3.98;;;;;;;9.81;60.15;100055.91;1772502;78;21113;-70
2022/04/11 07:13:44;;;;;;;6.37;3.90;;;;;;;9.89;59.69;100058.04;1775786;78;21519;-69
2022/04/11 07:16:10;;;;;;;6.62;3.60;;;;;;;9.99;59.67;100050.58;1779176;78;20935;-69
2022/04/11 07:18:38;;;;;;;6.12;3.37;;;;;;;10.12;59.34;100059.41;1769456;80;21003;-70
2022/04/11 07:21:05;;;;;;;6.35;3.17;;;;;;;10.22;59.23;100071.95;1778643;78;21053;-70
2022/04/11 07:23:32;;;;;;;7.28;3.40;;;;;;;10.26;58.63;100065.04;1780877;78;21089;-70
2022/04/11 07:26:00;;;;;;;8.33;3.60;;;;;;;10.28;58.39;100062.91;1780205;78;21363;-68
2022/04/11 07:28:28;;;;;;;5.92;3.37;;;;;;;10.24;57.58;100067.16;1779988;78;21575;-69
2022/04/11 07:30:55;;;;;;;5.75;3.47;;;;;;;10.19;57.76;100070.61;1790251;79;21030;-69
2022/04/11 07:33:22;;;;;;;5.72;3.67;;;;;;;10.16;57.60;100085.82;1790959;78;21081;-69
2022/04/11 07:35:49;;;;;;;5.28;3.12;;;;;;;10.16;57.79;100082.35;1790670;79;21561;-69
2022/04/11 07:38:16;;;;;;;6.15;3.08;;;;;;;10.15;57.53;100088.77;1795780;79;21485;-70
2022/04/11 07:40:45;;;;;;;5.12;3.05;;;;;;;10.06;57.53;100083.14;1793529;79;21536;-69
2022/04/11 07:43:13;;;;;;;5.15;2.85;;;;;;;10.04;57.94;100083.42;1790153;79;21011;-70
2022/04/11 07:45:42;;;;;;;5.42;2.58;;;;;;;10.13;57.86;100095.69;1792397;79;21136;-69
2022/04/11 07:48:10;;;;;;;6.33;3.20;;;;;;;10.22;57.38;100098.64;1777081;78;21553;-69
2022/04/11 07:50:37;;;;;;;5.17;3.30;;;;;;;10.25;57.20;100095.45;1778652;78;21842;-71
2022/04/11 07:53:05;;;;;;;5.92;3.20;;;;;;;10.28;56.84;100093.08;1780881;78;21018;-69
2022/04/11 07:55:33;;;;;;;6.50;3.60;;;;;;;10.35;56.66;100102.16;1778975;78;21070;-68
2022/04/11 07:58:02;;;;;;;5.70;3.12;;;;;;;10.46;55.80;100091.77;1769852;80;20966;-69
2022/04/11 08:00:30;;;;;;;4.97;3.40;;;;;;;10.59;55.83;100094.94;1769365;80;21038;-70
2022/04/11 08:02:57;;;;;;;7.17;3.30;;;;;;;10.72;55.78;100102.41;1777841;78;22130;-69
2022/04/11 08:05:24;;;;;;;6.95;3.30;;;;;;;10.76;54.84;100096.81;1778157;78;21549;-69
2022/04/11 08:07:51;;;;;;;4.62;2.70;;;;;;;10.76;54.93;100102.16;1782348;78;21169;-69
2022/04/11 08:10:19;;;;;;;4.87;3.27;;;;;;;10.79;55.20;100091.73;1778381;78;21504;-68
2022/04/11 08:12:57;;;;;;;6.05;3.05;;;;;;;10.86;55.20;100096.80;1782448;78;20971;-68
2022/04/11 08:15:27;;;;;;;6.40;3.10;;;;;;;10.90;55.07;100094.39;1777247;78;21894;-68
2022/04/11 08:17:55;;;;;;;4.63;3.20;;;;;;;10.91;55.02;100096.77;1794555;78;20999;-68
2022/04/11 08:20:23;;;;;;;3.90;2.80;;;;;;;10.90;55.16;100083.16;1780712;78;21313;-68
2022/04/11 08:22:51;;;;;;;4.70;2.97;;;;;;;10.90;54.73;100075.69;1778469;78;21262;-68
2022/04/11 08:25:18;;;;;;;5.17;3.10;;;;;;;10.88;54.79;100070.59;1778118;78;21718;-68
2022/04/11 08:27:46;;;;;;;5.50;3.33;;;;;;;10.90;54.64;100095.19;1778368;78;21613;-68
2022/04/11 08:30:13;;;;;;;4.93;3.27;;;;;;;10.95;54.40;100079.12;1780758;78;21011;-68
2022/04/11 08:32:43;;;;;;;5.83;3.77;;;;;;;11.09;53.81;100083.90;1782067;78;21180;-70
2022/04/11 08:35:10;;;;;;;6.00;3.47;;;;;;;11.22;53.58;100096.69;1778811;78;21205;-68
2022/04/11 08:37:40;;;;;;;5.97;3.00;;;;;;;11.33;52.69;100086.24;1785233;78;38504;-69
2022/04/11 08:40:11;;;;;;;4.90;3.13;;;;;;;11.43;52.89;100076.84;1787888;78;21167;-70
2022/04/11 08:42:39;;;;;;;5.53;3.20;;;;;;;11.57;52.25;100073.03;1778585;78;21221;-69
2022/04/11 08:45:08;;;;;;;6.33;3.30;;;;;;;11.68;51.69;100061.73;1779785;78;21944;-68
2022/04/11 08:47:36;;;;;;;5.87;3.40;;;;;;;11.54;51.28;100068.77;1781853;78;21290;-70
2022/04/11 08:50:06;;;;;;;4.93;2.90;;;;;;;11.39;51.32;100062.97;1781078;78;21382;-69
2022/04/11 08:52:34;;;;;;;5.93;2.73;;;;;;;11.32;50.72;100055.24;1783158;78;21255;-69
2022/04/11 08:55:02;;;;;;;4.60;2.93;;;;;;;11.30;51.47;100050.69;1785017;78;21229;-68
2022/04/11 08:57:30;;;;;;;4.63;2.83;;;;;;;11.28;51.49;100058.17;1776780;78;21339;-68
2022/04/11 09:00:06;;;;;;;5.47;3.20;;;;;;;11.19;51.03;100070.53;1777357;78;21748;-70
2022/04/11 09:02:35;;;;;;;6.67;3.13;;;;;;;11.06;51.33;100080.46;1778700;78;21103;-69
2022/04/11 09:05:02;;;;;;;5.47;2.63;;;;;;;10.97;51.56;100086.34;1769288;80;21106;-69
2022/04/11 09:07:55;;;;;;;5.33;3.23;;;;;;;10.89;51.61;100092.25;1772209;78;21826;-69
2022/04/11 09:10:30;;;;;;;6.07;3.47;;;;;;;10.80;51.51;100079.17;1769207;80;21936;-70
2022/04/11 09:13:00;;;;;;;5.90;3.07;;;;;;;10.76;51.71;100095.48;1774634;78;22131;-70
2022/04/11 09:15:28;;;;;;;5.23;3.33;;;;;;;10.81;51.74;100091.45;1769410;81;21382;-67
2022/04/11 09:17:57;;;;;;;5.30;3.20;;;;;;;10.91;51.44;100095.98;1769714;81;21168;-69
2022/04/11 09:20:28;;;;;;;6.03;3.27;;;;;;;11.06;51.40;100103.18;1769180;81;21292;-68
2022/04/11 09:22:57;;;;;;;5.33;2.73;;;;;;;11.26;51.36;100094.55;1777698;78;21010;-69
2022/04/11 09:25:31;;;;;;;5.30;2.90;;;;;;;11.47;51.44;100098.48;1775756;78;21191;-68
2022/04/11 09:28:08;;;;;;;5.33;2.80;;;;;;;11.68;50.35;100108.03;1776602;78;21346;-68
2022/04/11 09:30:40;;;;;;;4.97;2.97;;;;;;;11.85;49.37;100114.40;1778506;78;21811;-68
2022/04/11 09:33:11;;;;;;;5.63;3.00;;;;;;;11.92;48.96;100102.84;1776820;78;21561;-72
2022/04/11 09:35:47;;;;;;;5.50;2.80;;;;;;;11.90;48.36;100098.30;1778824;78;21192;-68
2022/04/11 09:38:17;;;;;;;6.37;2.77;;;;;;;11.85;48.32;100114.40;1790302;78;21003;-69
2022/04/11 09:40:50;;;;;;;6.67;2.65;;;;;;;11.76;48.13;100114.67;1775180;78;21290;-68
2022/04/11 09:43:28;;;;;;;5.40;2.70;;;;;;;11.69;48.31;100114.98;1772512;80;21082;-69
2022/04/11 09:45:55;;;;;;;4.40;2.43;;;;;;;11.65;47.93;100105.11;1774245;78;21175;-68
2022/04/11 09:48:30;;;;;;;4.40;2.77;;;;;;;11.62;47.93;100108.33;1780620;78;21278;-68
2022/04/11 09:50:59;;;;;;;4.73;2.80;;;;;;;11.61;48.01;100104.04;1777542;78;21278;-69
2022/04/11 09:53:32;;;;;;;4.93;2.87;;;;;;;11.60;47.21;100105.92;1779060;78;21361;-69
2022/04/11 09:56:03;;;;;;;4.90;2.60;;;;;;;11.64;47.37;100100.81;1776723;78;21951;-68
2022/04/11 09:58:34;;;;;;;4.43;2.50;;;;;;;11.76;47.59;100105.85;1777923;78;21140;-70
2022/04/11 10:01:04;;;;;;;5.87;2.63;;;;;;;11.84;47.18;100096.72;1776729;78;21134;-69
2022/04/11 10:03:31;;;;;;;4.67;2.47;;;;;;;11.88;46.92;100095.66;1774504;78;21232;-69
2022/04/11 10:05:58;;;;;;;3.93;2.40;;;;;;;11.88;46.21;100091.64;1781663;78;21285;-69
2022/04/11 10:08:26;;;;;;;3.37;2.30;;;;;;;11.85;45.82;100087.64;1777515;78;21804;-69
2022/04/11 10:10:56;;;;;;;4.33;2.63;;;;;;;11.81;46.28;100075.83;1778850;78;21789;-69
2022/04/11 10:13:23;;;;;;;4.40;2.57;;;;;;;11.83;46.12;100090.29;1798696;78;21320;-69
2022/04/11 10:15:51;;;;;;;4.20;2.77;;;;;;;11.81;45.98;100121.32;1779028;78;21280;-69
2022/04/11 10:18:25;;;;;;;4.43;2.43;;;;;;;11.76;45.56;100101.84;1777599;78;21291;-68
2022/04/11 10:20:59;;;;;;;3.77;2.10;;;;;;;11.64;45.22;100102.16;1777553;78;21345;-68
2022/04/11 10:24:06;;;;;;;6.70;2.47;;;;;;;11.51;45.33;100109.69;1779109;78;21330;-68
2022/04/11 10:26:47;;;;;;;4.93;2.50;;;;;;;11.36;45.26;100097.73;1774232;78;21234;-69
2022/04/11 10:29:37;;;;;;;4.30;2.50;;;;;;;11.25;45.81;100102.32;1769750;80;21302;-69
2022/04/11 10:32:11;;;;;;;4.47;2.50;;;;;;;11.24;46.20;100104.70;1775058;78;21819;-69
2022/04/11 10:35:04;;;;;;;4.77;2.87;;;;;;;11.23;46.37;100107.67;1769002;78;21797;-69
2022/04/11 10:37:50;;;;;;;6.47;2.50;;;;;;;11.26;46.36;100091.88;1779168;78;21283;-69
2022/04/11 10:40:24;;;;;;;5.23;2.53;;;;;;;11.31;46.71;100102.29;1796941;77;21264;-68
2022/04/11 10:46:11;;;;;;;4.90;2.63;;;;;;;11.42;45.63;100096.64;1799079;77;21376;-69
2022/04/11 10:49:15;;;;;;;;;;;;;;;;;;;;;
2022/04/11 10:51:34;;;;;;;4.97;2.40;;;;;;;11.63;44.44;100085.84;1768523;79;21242;-69
2022/04/11 10:54:21;;;;;;;3.77;2.33;;;;;;;11.74;44.01;100085.50;1788449;78;21255;-68
2022/04/11 10:57:00;;;;;;;6.97;2.43;;;;;;;11.79;43.49;100086.03;1790264;79;21703;-69
2022/04/11 10:59:28;;;;;;;4.63;2.30;;;;;;;11.77;42.97;100084.16;1766518;78;21336;-68
2022/04/11 11:01:58;;;;;;;5.57;2.37;;;;;;;11.74;43.31;100095.41;1771019;78;21211;-70
2022/04/11 11:04:28;;;;;;;3.77;2.17;;;;;;;11.73;42.84;100095.95;1766931;78;21303;-69
2022/04/11 11:07:30;;;;;;;3.83;2.10;;;;;;;11.73;42.02;100096.50;1769266;78;21020;-68
2022/04/11 11:10:01;;;;;;;4.33;2.50;;;;;;;11.72;42.16;100087.67;1767020;78;21777;-69
2022/04/11 11:12:31;;;;;;;5.00;2.33;;;;;;;11.75;42.12;100086.33;1766508;78;21307;-69
2022/04/11 11:15:00;;;;;;;3.80;2.10;;;;;;;11.74;42.07;100076.69;1767046;78;21510;-69
2022/04/11 11:17:54;;;;;;;3.90;2.10;;;;;;;11.72;42.48;100081.53;1761206;78;21267;-67
2022/04/11 11:20:23;;;;;;;3.60;2.13;;;;;;;11.70;41.75;100079.11;1762055;80;21358;-68
2022/04/11 11:23:17;;;;;;;4.37;1.97;;;;;;;11.64;42.00;100076.20;1774123;78;21385;-69
2022/04/11 11:25:45;;;;;;;5.23;2.47;;;;;;;11.62;42.21;100089.61;1768422;78;21299;-68
2022/04/11 11:28:15;;;;;;;4.57;2.30;;;;;;;11.62;42.82;100101.65;1781804;79;21221;-69
2022/04/11 11:30:43;;;;;;;4.80;2.23;;;;;;;11.60;43.01;100105.13;1778264;78;21036;-67
2022/04/11 11:33:16;;;;;;;3.87;2.00;;;;;;;11.49;43.03;100109.17;1773424;79;21125;-69
2022/04/11 11:35:46;;;;;;;5.17;2.53;;;;;;;11.37;43.86;100103.33;1772568;81;21497;-68
2022/04/11 11:38:13;;;;;;;5.53;2.53;;;;;;;11.26;44.91;100107.12;1769166;80;21335;-68
2022/04/11 11:40:45;;;;;;;3.43;2.13;;;;;;;11.17;44.97;100104.73;1768920;80;22071;-68
2022/04/11 11:43:13;;;;;;;4.20;2.08;;;;;;;11.08;44.60;100103.69;1790952;79;21294;-69
2022/04/11 11:45:41;;;;;;;5.03;2.60;;;;;;;11.01;44.53;100102.09;1794952;78;21415;-68
2022/04/11 11:48:27;;;;;;;5.33;2.80;;;;;;;11.00;45.13;100113.87;1777249;78;21492;-69
2022/04/11 11:50:58;;;;;;;4.50;2.60;;;;;;;11.01;44.56;100113.33;1769546;80;21632;-68
2022/04/11 11:53:28;;;;;;;5.73;2.53;;;;;;;11.01;45.04;100103.44;1769890;80;21306;-68